createdAt,value
2023-03-24T00:01:46.689Z,99358.84
2023-03-24T00:04:14.243Z,99395.28
2023-03-24T00:06:41.138Z,99310.94
2023-03-24T00:09:07.862Z,99393.41
2023-03-24T00:11:34.634Z,99333.97
2023-03-24T00:14:02.742Z,99394.97
2023-03-24T00:16:30.012Z,99374.81
2023-03-24T00:18:56.644Z,99373.38
2023-03-24T00:21:24.769Z,99335.38
2023-03-24T00:23:54.451Z,99244.72
2023-03-24T00:26:21.527Z,99374.75
2023-03-24T00:28:49.127Z,99289.34
2023-03-24T00:31:16.890Z,99376.97
2023-03-24T00:33:45.165Z,99226.59
2023-03-24T00:36:12.475Z,99292.44
2023-03-24T00:38:40.834Z,99353.81
2023-03-24T00:41:08.689Z,99228.13
2023-03-24T00:43:35.455Z,99305.19
2023-03-24T00:46:07.804Z,99348.81
2023-03-24T00:48:34.861Z,99325.81
2023-03-24T00:51:02.964Z,99330.50
2023-03-24T00:53:29.964Z,99299.84
2023-03-24T00:55:58.266Z,99300.38
2023-03-24T00:58:25.813Z,99306.41
2023-03-24T01:00:57.124Z,99311.50
2023-03-24T01:03:27.435Z,99307.22
2023-03-24T01:05:57.664Z,99300.91
2023-03-24T01:08:25.574Z,99295.59
2023-03-24T01:10:55.454Z,99294.19
2023-03-24T01:13:28.412Z,99290.94
2023-03-24T01:15:55.632Z,99273.47
2023-03-24T01:18:23.953Z,99271.66
2023-03-24T01:20:51.331Z,99257.03
2023-03-24T01:23:24.482Z,99262.81
2023-03-24T01:25:52.461Z,99193.50
2023-03-24T01:28:24.945Z,99251.00
2023-03-24T01:30:52.879Z,99080.63
2023-03-24T01:33:19.574Z,99220.75
2023-03-24T01:35:46.935Z,99251.88
2023-03-24T01:38:14.329Z,99197.44
2023-03-24T01:40:45.963Z,99245.00
2023-03-24T01:43:21.574Z,99200.78
2023-03-24T01:45:58.397Z,99241.53
2023-03-24T01:48:45.056Z,99252.00
2023-03-24T01:51:35.460Z,99248.19
2023-03-24T01:54:06.167Z,99254.47
2023-03-24T01:56:35.558Z,99257.97
2023-03-24T01:59:05.771Z,99233.56
2023-03-24T02:01:32.427Z,99190.50
2023-03-24T02:04:00.432Z,99217.75
2023-03-24T02:06:27.203Z,99172.19
2023-03-24T02:08:56.399Z,99169.84
2023-03-24T02:11:26.712Z,99163.72
2023-03-24T02:13:53.808Z,99128.47
2023-03-24T02:16:23.248Z,99195.47
2023-03-24T02:19:03.153Z,99181.19
2023-03-24T02:22:07.337Z,99177.00
2023-03-24T02:24:59.916Z,99167.69
2023-03-24T02:27:47.968Z,99160.19
2023-03-24T02:30:34.317Z,99152.41
2023-03-24T02:33:32.034Z,99152.22
2023-03-24T02:36:04.541Z,99146.91
2023-03-24T02:38:53.449Z,99147.72
2023-03-24T02:41:33.732Z,99115.38
2023-03-24T02:44:03.248Z,99149.25
2023-03-24T02:46:33.750Z,99138.44
2023-03-24T02:49:00.335Z,99125.41
2023-03-24T02:51:35.818Z,99136.94
2023-03-24T02:54:12.672Z,99129.28
2023-03-24T02:56:47.891Z,99085.75
2023-03-24T02:59:42.844Z,99057.50
2023-03-24T03:02:13.676Z,98966.72
2023-03-24T03:04:49.039Z,99062.03
2023-03-24T03:07:21.636Z,99088.28
2023-03-24T03:09:55.842Z,99085.31
2023-03-24T03:12:23.451Z,99092.03
2023-03-24T03:14:56.718Z,99089.66
2023-03-24T03:17:30.785Z,98999.63
2023-03-24T03:20:08.226Z,99057.72
2023-03-24T03:22:43.152Z,99068.66
2023-03-24T03:25:12.129Z,99066.47
2023-03-24T03:27:40.274Z,99019.41
2023-03-24T03:30:10.957Z,98999.44
2023-03-24T03:32:41.419Z,99054.31
2023-03-24T03:35:14.547Z,99026.47
2023-03-24T03:37:47.868Z,98969.19
2023-03-24T03:40:17.194Z,99036.13
2023-03-24T03:42:44.167Z,99019.13
2023-03-24T03:45:11.094Z,99063.78
2023-03-24T03:47:37.732Z,99025.66
2023-03-24T03:50:06.418Z,99063.78
2023-03-24T03:52:32.999Z,99061.53
2023-03-24T03:54:59.891Z,99014.00
2023-03-24T03:57:26.914Z,99039.88
2023-03-24T03:59:53.427Z,99005.09
2023-03-24T04:02:29.389Z,99072.75
2023-03-24T04:05:29.119Z,99061.63
2023-03-24T04:08:04.768Z,99057.06
2023-03-24T04:10:45.962Z,99048.78
2023-03-24T04:13:21.816Z,99077.94
2023-03-24T04:16:19.172Z,99078.78
2023-03-24T04:19:10.962Z,99083.94
2023-03-24T04:21:54.242Z,99093.59
2023-03-24T04:24:51.952Z,99070.25
2023-03-24T04:27:28.043Z,99063.44
2023-03-24T04:30:06.264Z,99034.50
2023-03-24T04:32:41.577Z,99092.22
2023-03-24T04:35:11.643Z,99089.47
2023-03-24T04:37:38.794Z,99092.53
2023-03-24T04:40:11.669Z,99065.34
2023-03-24T04:42:42.770Z,99065.22
2023-03-24T04:45:09.873Z,99049.19
2023-03-24T04:47:43.182Z,99058.63
2023-03-24T04:50:11.553Z,99115.91
2023-03-24T04:52:39.601Z,99114.72
2023-03-24T04:55:26.494Z,99126.72
2023-03-24T04:57:53.519Z,99097.50
2023-03-24T05:00:20.195Z,99126.38
2023-03-24T05:02:48.067Z,99136.13
2023-03-24T05:05:16.021Z,99151.78
2023-03-24T05:07:42.505Z,99101.66
2023-03-24T05:10:09.392Z,99090.03
2023-03-24T05:12:36.208Z,99139.28
2023-03-24T05:15:04.058Z,99058.03
2023-03-24T05:17:30.638Z,99126.47
2023-03-24T05:19:57.153Z,99030.97
2023-03-24T05:22:23.671Z,99165.50
2023-03-24T05:24:50.261Z,99161.56
2023-03-24T05:27:16.729Z,99161.22
2023-03-24T05:29:43.478Z,99123.81
2023-03-24T05:32:10.015Z,99180.19
2023-03-24T05:34:36.767Z,99172.19
2023-03-24T05:37:03.294Z,99138.94
2023-03-24T05:39:29.851Z,99113.72
2023-03-24T05:41:56.608Z,99197.81
2023-03-24T05:44:23.106Z,99206.09
2023-03-24T05:46:49.673Z,99145.78
2023-03-24T05:49:16.446Z,99175.00
2023-03-24T05:51:43.130Z,99220.56
2023-03-24T05:54:09.882Z,99239.56
2023-03-24T05:56:38.784Z,99229.03
2023-03-24T05:59:05.376Z,99199.13
2023-03-24T06:01:32.275Z,99221.22
2023-03-24T06:03:58.878Z,99231.00
2023-03-24T06:06:26.274Z,99278.75
2023-03-24T06:08:54.548Z,99273.25
2023-03-24T06:11:21.384Z,99303.03
2023-03-24T06:13:47.954Z,99256.47
2023-03-24T06:16:14.780Z,99283.09
2023-03-24T06:18:42.660Z,99235.66
2023-03-24T06:21:09.730Z,99181.81
2023-03-24T06:23:36.271Z,99310.56
2023-03-24T06:26:09.106Z,99319.06
2023-03-24T06:28:35.604Z,99313.56
2023-03-24T06:31:20.060Z,99268.31
2023-03-24T06:33:48.139Z,99316.84
2023-03-24T06:36:15.114Z,99285.13
2023-03-24T06:38:42.161Z,99354.66
2023-03-24T06:41:09.083Z,99352.16
2023-03-24T06:43:35.932Z,99350.03
2023-03-24T06:46:02.938Z,99357.34
2023-03-24T06:48:29.584Z,99352.91
2023-03-24T06:50:56.055Z,99298.31
2023-03-24T06:53:22.864Z,99317.03
2023-03-24T06:55:50.810Z,99225.13
2023-03-24T06:58:17.861Z,99340.59
2023-03-24T07:00:46.741Z,99347.75
2023-03-24T07:03:15.674Z,99352.00
2023-03-24T07:05:44.615Z,99285.94
2023-03-24T07:10:44.425Z,99402.97
2023-03-24T07:13:11.579Z,99367.28
2023-03-24T07:15:39.245Z,99372.84
2023-03-24T07:18:06.559Z,99355.53
2023-03-24T07:20:33.387Z,99379.03
2023-03-24T07:22:59.884Z,99345.44
2023-03-24T07:25:26.776Z,99419.59
2023-03-24T07:27:55.684Z,99349.56
2023-03-24T07:30:30.071Z,99415.53
2023-03-24T07:33:05.246Z,99401.22
2023-03-24T07:35:31.883Z,99402.44
2023-03-24T07:38:00.826Z,99430.22
2023-03-24T07:40:27.749Z,99414.19
2023-03-24T07:42:54.328Z,99446.34
2023-03-24T07:45:20.854Z,99358.47
2023-03-24T07:47:47.421Z,99434.72
2023-03-24T07:50:14.747Z,99430.22
2023-03-24T07:52:43.705Z,99442.19
2023-03-24T07:55:15.726Z,99413.25
2023-03-24T07:57:43.370Z,99346.66
2023-03-24T08:00:15.599Z,99420.91
2023-03-24T08:02:42.764Z,99392.94
2023-03-24T08:05:10.629Z,99448.53
2023-03-24T08:07:37.180Z,99432.34
2023-03-24T08:10:04.000Z,99466.00
2023-03-24T08:12:30.633Z,99391.09
2023-03-24T08:14:57.154Z,99470.34
2023-03-24T08:17:23.625Z,99447.56
2023-03-24T08:20:00.060Z,99421.06
2023-03-24T08:22:27.290Z,99489.34
2023-03-24T08:24:53.862Z,99489.34
2023-03-24T08:27:20.529Z,99487.53
2023-03-24T08:29:47.168Z,99490.28
2023-03-24T08:32:13.896Z,99447.16
2023-03-24T08:34:40.370Z,99457.69
2023-03-24T08:37:07.814Z,99460.69
2023-03-24T08:39:35.920Z,99490.50
2023-03-24T08:42:02.608Z,99487.56
2023-03-24T08:44:31.061Z,99492.03
2023-03-24T08:47:00.906Z,99496.56
2023-03-24T08:49:27.603Z,99463.94
2023-03-24T08:51:54.208Z,99486.34
2023-03-24T08:54:23.469Z,99465.25
2023-03-24T08:56:50.820Z,99446.06
2023-03-24T08:59:17.977Z,99473.19
2023-03-24T09:01:44.973Z,99481.53
2023-03-24T09:04:14.579Z,99420.59
2023-03-24T09:06:41.596Z,99466.19
2023-03-24T09:09:08.224Z,99346.78
2023-03-24T09:11:36.268Z,99485.41
2023-03-24T09:14:04.030Z,99491.00
2023-03-24T09:16:30.640Z,99494.41
2023-03-24T09:18:57.304Z,99495.34
2023-03-24T09:21:24.103Z,99494.47
2023-03-24T09:23:50.798Z,99474.88
2023-03-24T09:26:17.413Z,99487.63
2023-03-24T09:28:44.032Z,99505.81
2023-03-24T09:31:10.901Z,99439.59
2023-03-24T09:33:37.693Z,99459.72
2023-03-24T09:36:04.892Z,99499.84
2023-03-24T09:38:33.489Z,99458.91
2023-03-24T09:41:02.730Z,99413.84
2023-03-24T09:43:46.687Z,99491.75
2023-03-24T09:46:16.083Z,99454.84
2023-03-24T09:48:47.711Z,99443.06
2023-03-24T09:51:27.135Z,99476.63
2023-03-24T09:54:11.581Z,99448.66
2023-03-24T09:56:39.548Z,99492.69
2023-03-24T09:59:10.514Z,99431.91
2023-03-24T10:01:37.194Z,99499.38
2023-03-24T10:04:04.760Z,99450.94
2023-03-24T10:06:41.802Z,99504.19
2023-03-24T10:09:14.208Z,99499.28
2023-03-24T10:12:02.327Z,99504.38
2023-03-24T10:14:47.900Z,99513.69
2023-03-24T10:17:23.880Z,99512.94
2023-03-24T10:20:17.731Z,99467.16
2023-03-24T10:23:12.321Z,99492.34
2023-03-24T10:25:43.358Z,99513.50
2023-03-24T10:28:18.510Z,99487.88
2023-03-24T10:30:48.146Z,99481.00
2023-03-24T10:33:15.494Z,99495.84
2023-03-24T10:35:57.139Z,99522.31
2023-03-24T10:38:23.821Z,99505.25
2023-03-24T10:40:50.723Z,99503.16
2023-03-24T10:43:19.272Z,99503.03
2023-03-24T10:45:51.713Z,99505.41
2023-03-24T10:49:11.870Z,99522.47
2023-03-24T10:51:39.844Z,99519.19
2023-03-24T10:54:26.369Z,99516.59
2023-03-24T10:57:00.678Z,99554.97
2023-03-24T10:59:32.082Z,99554.38
2023-03-24T11:02:20.859Z,99525.66
2023-03-24T11:05:02.552Z,99522.97
2023-03-24T11:07:40.716Z,99523.59
2023-03-24T11:10:10.327Z,99536.19
2023-03-24T11:12:39.148Z,99492.03
2023-03-24T11:15:23.656Z,99520.56
2023-03-24T11:18:02.150Z,99527.38
2023-03-24T11:20:40.594Z,99496.22
2023-03-24T11:23:25.406Z,99545.66
2023-03-24T11:26:23.704Z,99557.50
2023-03-24T11:28:56.309Z,99552.34
2023-03-24T11:31:35.096Z,99557.50
2023-03-24T11:34:14.782Z,99543.38
2023-03-24T11:36:58.419Z,99477.75
2023-03-24T11:39:30.202Z,99524.56
2023-03-24T11:42:04.609Z,99518.19
2023-03-24T11:44:41.538Z,99525.16
2023-03-24T11:47:26.951Z,99524.94
2023-03-24T11:49:58.869Z,99512.16
2023-03-24T11:52:29.433Z,99529.34
2023-03-24T11:54:55.934Z,99505.94
2023-03-24T11:57:41.228Z,99490.56
2023-03-24T12:00:41.687Z,99523.91
2023-03-24T12:03:11.426Z,99547.28
2023-03-24T12:05:42.952Z,99508.34
2023-03-24T12:08:33.645Z,99528.59
2023-03-24T12:11:22.070Z,99525.56
2023-03-24T12:13:49.800Z,99516.75
2023-03-24T12:16:28.587Z,99536.53
2023-03-24T12:19:13.352Z,99529.00
2023-03-24T12:21:49.340Z,99542.50
2023-03-24T12:24:43.800Z,99529.25
2023-03-24T12:27:34.589Z,99537.00
2023-03-24T12:30:06.588Z,99524.47
2023-03-24T12:32:49.688Z,99552.78
2023-03-24T12:35:40.299Z,99550.69
2023-03-24T12:38:25.740Z,99546.38
2023-03-24T12:41:13.598Z,99552.22
2023-03-24T12:44:04.976Z,99541.34
2023-03-24T12:46:52.516Z,99527.38
2023-03-24T12:49:27.799Z,99534.66
2023-03-24T12:52:19.213Z,99526.91
2023-03-24T12:54:47.489Z,99540.34
2023-03-24T12:57:16.844Z,99541.44
2023-03-24T12:59:46.742Z,99515.53
2023-03-24T13:02:25.329Z,99525.66
2023-03-24T13:04:54.749Z,99530.50
2023-03-24T13:07:25.844Z,99484.09
2023-03-24T13:10:06.866Z,99532.28
2023-03-24T13:12:58.019Z,99517.31
2023-03-24T13:15:36.359Z,99513.81
2023-03-24T13:18:20.982Z,99505.28
2023-03-24T13:21:17.385Z,99506.41
2023-03-24T13:24:09.374Z,99529.78
2023-03-24T13:26:54.021Z,99498.13
2023-03-24T13:29:48.987Z,99507.38
2023-03-24T13:32:25.142Z,99510.56
2023-03-24T13:35:24.926Z,99369.63
2023-03-24T13:37:54.255Z,99507.25
2023-03-24T13:40:25.976Z,99512.84
2023-03-24T13:42:58.500Z,99525.47
2023-03-24T13:45:40.739Z,99510.19
2023-03-24T13:48:10.447Z,99506.94
2023-03-24T13:50:53.649Z,99450.00
2023-03-24T13:53:36.902Z,99463.94
2023-03-24T13:56:05.619Z,99486.28
2023-03-24T13:59:06.687Z,99522.22
2023-03-24T14:01:42.131Z,99510.38
2023-03-24T14:04:43.565Z,99517.66
2023-03-24T14:07:28.495Z,99416.41
2023-03-24T14:10:22.791Z,99497.13
2023-03-24T14:12:58.223Z,99515.38
2023-03-24T14:15:32.565Z,99481.34
2023-03-24T14:18:24.254Z,99497.84
2023-03-24T14:21:10.239Z,99378.09
2023-03-24T14:23:50.633Z,99436.31
2023-03-24T14:26:20.006Z,99493.91
2023-03-24T14:28:57.172Z,99429.84
2023-03-24T14:31:45.619Z,99445.25
2023-03-24T14:34:21.159Z,99487.63
2023-03-24T14:37:01.295Z,99489.59
2023-03-24T14:39:40.953Z,99528.75
2023-03-24T14:42:32.885Z,99502.91
2023-03-24T14:45:04.532Z,99502.31
2023-03-24T14:47:35.991Z,99481.16
2023-03-24T14:50:12.521Z,99481.91
2023-03-24T14:52:47.628Z,99506.38
2023-03-24T14:55:19.720Z,99503.94
2023-03-24T14:57:50.228Z,99501.38
2023-03-24T15:00:36.612Z,99514.97
2023-03-24T15:03:16.593Z,99533.97
2023-03-24T15:05:43.276Z,99518.84
2023-03-24T15:08:13.058Z,99563.28
2023-03-24T15:10:43.863Z,99476.19
2023-03-24T15:13:33.089Z,99557.81
2023-03-24T15:16:00.934Z,99551.00
2023-03-24T15:18:27.778Z,99550.00
2023-03-24T15:20:54.404Z,99503.00
2023-03-24T15:23:24.423Z,99551.97
2023-03-24T15:25:52.672Z,99531.63
2023-03-24T15:28:27.926Z,99552.09
2023-03-24T15:30:56.582Z,99519.41
2023-03-24T15:33:23.624Z,99527.94
2023-03-24T15:35:56.850Z,99433.22
2023-03-24T15:38:31.985Z,99572.94
2023-03-24T15:41:09.877Z,99574.25
2023-03-24T15:43:44.576Z,99555.03
2023-03-24T15:46:22.672Z,99552.47
2023-03-24T15:48:49.585Z,99494.19
2023-03-24T15:51:16.359Z,99512.94
2023-03-24T15:53:49.042Z,99539.66
2023-03-24T15:56:18.053Z,99472.94
2023-03-24T15:58:56.981Z,99474.00
2023-03-24T16:01:31.617Z,99513.41
2023-03-24T16:04:01.182Z,99517.19
2023-03-24T16:06:35.141Z,99445.88
2023-03-24T16:09:06.671Z,99443.03
2023-03-24T16:11:33.444Z,99452.19
2023-03-24T16:14:00.501Z,99431.22
2023-03-24T16:16:29.205Z,99513.50
2023-03-24T16:18:59.540Z,99522.31
2023-03-24T16:21:28.488Z,99525.81
2023-03-24T16:23:56.863Z,99526.00
2023-03-24T16:26:24.422Z,99510.34
2023-03-24T16:28:52.520Z,99529.59
2023-03-24T16:31:31.186Z,99448.03
2023-03-24T16:33:58.248Z,99522.94
2023-03-24T16:36:28.305Z,99544.31
2023-03-24T16:38:57.294Z,99530.19
2023-03-24T16:41:24.125Z,99484.34
2023-03-24T16:43:50.978Z,99541.72
2023-03-24T16:46:27.285Z,99626.31
2023-03-24T16:48:54.337Z,99570.09
2023-03-24T16:51:21.660Z,99540.25
2023-03-24T16:53:48.292Z,99483.28
2023-03-24T16:56:18.311Z,99559.25
2023-03-24T16:58:47.815Z,99535.13
2023-03-24T17:01:29.675Z,99571.03
2023-03-24T17:03:58.049Z,99571.94
2023-03-24T17:06:25.704Z,99491.41
2023-03-24T17:08:52.511Z,99437.63
2023-03-24T17:11:25.962Z,99509.28
2023-03-24T17:13:54.206Z,99477.69
2023-03-24T17:16:20.784Z,99552.25
2023-03-24T17:18:48.409Z,99552.75
2023-03-24T17:21:17.125Z,99577.28
2023-03-24T17:23:46.786Z,99582.56
2023-03-24T17:26:13.490Z,99522.69
2023-03-24T17:28:40.278Z,99515.88
2023-03-24T17:31:06.867Z,99554.72
2023-03-24T17:33:33.791Z,99549.13
2023-03-24T17:36:00.648Z,99470.69
2023-03-24T17:38:27.203Z,99581.06
2023-03-24T17:41:01.829Z,99592.78
2023-03-24T17:43:28.562Z,99525.97
2023-03-24T17:45:59.573Z,99481.84
2023-03-24T17:48:27.920Z,99565.28
2023-03-24T17:50:56.010Z,99563.19
2023-03-24T17:53:28.484Z,99595.47
2023-03-24T17:55:57.186Z,99518.53
2023-03-24T17:58:26.895Z,99598.22
2023-03-24T18:00:54.276Z,99580.13
2023-03-24T18:03:21.786Z,99576.59
2023-03-24T18:05:48.494Z,99590.00
2023-03-24T18:08:15.336Z,99569.75
2023-03-24T18:10:41.991Z,99514.50
2023-03-24T18:13:10.441Z,99593.06
2023-03-24T18:15:37.067Z,99574.91
2023-03-24T18:18:03.713Z,99545.56
2023-03-24T18:20:30.451Z,99569.00
2023-03-24T18:22:56.905Z,99541.44
2023-03-24T18:25:23.590Z,99514.16
2023-03-24T18:27:50.078Z,99584.56
2023-03-24T18:30:17.517Z,99585.38
2023-03-24T18:32:44.145Z,99561.56
2023-03-24T18:35:18.194Z,99585.47
2023-03-24T18:37:44.818Z,99509.28
2023-03-24T18:40:12.836Z,99572.09
2023-03-24T18:42:39.323Z,99584.94
2023-03-24T18:45:07.124Z,99509.69
2023-03-24T18:47:35.197Z,99521.41
2023-03-24T18:50:02.928Z,99506.41
2023-03-24T18:52:32.919Z,99535.09
2023-03-24T18:55:02.419Z,99521.03
2023-03-24T18:57:29.238Z,99515.28
2023-03-24T18:59:55.890Z,99553.34
2023-03-24T19:02:22.489Z,99555.47
2023-03-24T19:04:49.631Z,99514.25
2023-03-24T19:07:24.238Z,99535.75
2023-03-24T19:09:51.438Z,99530.56
2023-03-24T19:12:20.290Z,99568.91
2023-03-24T19:14:46.960Z,99486.25
2023-03-24T19:17:13.528Z,99571.84
2023-03-24T19:19:41.931Z,99471.28
2023-03-24T19:22:08.498Z,99516.00
2023-03-24T19:24:34.991Z,99560.50
2023-03-24T19:27:01.986Z,99567.06
2023-03-24T19:29:28.501Z,99545.22
2023-03-24T19:31:55.034Z,99560.44
2023-03-24T19:34:21.529Z,99556.19
2023-03-24T19:36:49.664Z,99376.38
2023-03-24T19:39:18.049Z,99498.38
2023-03-24T19:41:44.823Z,99556.50
2023-03-24T19:44:11.492Z,99501.34
2023-03-24T19:46:38.067Z,99497.59
2023-03-24T19:49:04.696Z,99552.69
2023-03-24T19:51:31.644Z,99500.34
2023-03-24T19:53:58.333Z,99530.38
2023-03-24T19:56:25.217Z,99496.97
2023-03-24T19:58:51.815Z,99502.69
2023-03-24T20:01:20.040Z,99535.69
2023-03-24T20:03:49.946Z,99491.69
2023-03-24T20:06:19.528Z,99523.88
2023-03-24T20:08:46.895Z,99542.75
2023-03-24T20:11:13.573Z,99436.91
2023-03-24T20:13:40.241Z,99526.56
2023-03-24T20:16:07.022Z,99527.56
2023-03-24T20:18:35.685Z,99519.75
2023-03-24T20:21:02.317Z,99531.34
2023-03-24T20:23:29.121Z,99491.53
2023-03-24T20:25:59.052Z,99528.81
2023-03-24T20:28:26.536Z,99533.78
2023-03-24T20:31:01.625Z,99477.66
2023-03-24T20:33:31.069Z,99486.25
2023-03-24T20:35:57.977Z,99501.97
2023-03-24T20:38:31.672Z,99449.44
2023-03-24T20:41:06.305Z,99465.41
2023-03-24T20:43:37.175Z,99505.84
2023-03-24T20:46:05.452Z,99534.97
2023-03-24T20:48:32.227Z,99507.34
2023-03-24T20:51:00.219Z,99527.03
2023-03-24T20:53:27.615Z,99523.22
2023-03-24T20:56:06.844Z,99515.06
2023-03-24T20:58:34.580Z,99445.31
2023-03-24T21:01:06.055Z,99466.88
2023-03-24T21:03:32.953Z,99516.16
2023-03-24T21:06:00.914Z,99454.13
2023-03-24T21:08:28.041Z,99514.84
2023-03-24T21:10:56.179Z,99512.31
2023-03-24T21:13:23.871Z,99482.03
2023-03-24T21:15:50.813Z,99477.47
2023-03-24T21:18:18.151Z,99515.56
2023-03-24T21:20:57.765Z,99502.13
2023-03-24T21:23:25.293Z,99503.97
2023-03-24T21:25:52.457Z,99367.44
2023-03-24T21:28:19.100Z,99497.41
2023-03-24T21:30:47.095Z,99503.59
2023-03-24T21:33:17.357Z,99515.31
2023-03-24T21:35:43.986Z,99496.25
2023-03-24T21:38:10.654Z,99461.25
2023-03-24T21:40:37.293Z,99451.53
2023-03-24T21:43:07.184Z,99512.19
2023-03-24T21:45:36.073Z,99508.25
2023-03-24T21:48:06.756Z,99504.09
2023-03-24T21:50:34.696Z,99505.56
2023-03-24T21:53:02.398Z,99511.50
2023-03-24T21:55:28.937Z,99477.38
2023-03-24T21:57:58.677Z,99505.56
2023-03-24T22:00:29.716Z,99516.34
2023-03-24T22:02:58.260Z,99467.34
2023-03-24T22:05:27.839Z,99493.16
2023-03-24T22:07:55.909Z,99434.63
2023-03-24T22:10:22.792Z,99467.25
2023-03-24T22:12:51.387Z,99505.69
2023-03-24T22:15:18.413Z,99499.06
2023-03-24T22:17:45.459Z,99463.16
2023-03-24T22:20:12.943Z,99513.16
2023-03-24T22:22:41.014Z,99494.94
2023-03-24T22:25:09.636Z,99490.53
2023-03-24T22:27:36.371Z,99474.34
2023-03-24T22:30:02.999Z,99495.25
2023-03-24T22:32:29.593Z,99460.78
2023-03-24T22:34:56.533Z,99489.41
2023-03-24T22:37:23.053Z,99496.28
2023-03-24T22:39:49.562Z,99490.09
2023-03-24T22:42:16.060Z,99422.56
2023-03-24T22:44:42.568Z,99500.25
2023-03-24T22:47:09.062Z,99459.88
2023-03-24T22:49:36.743Z,99499.13
2023-03-24T22:52:03.392Z,99496.56
2023-03-24T22:54:30.184Z,99363.16
2023-03-24T22:56:56.735Z,99513.91
2023-03-24T22:59:24.630Z,99508.22
2023-03-24T23:02:02.456Z,99510.94
2023-03-24T23:04:35.580Z,99443.94
2023-03-24T23:07:02.302Z,99526.28
2023-03-24T23:09:29.777Z,99526.47
2023-03-24T23:11:56.299Z,99518.91
2023-03-24T23:14:25.321Z,99529.94
2023-03-24T23:16:52.219Z,99526.88
2023-03-24T23:19:18.785Z,99479.38
2023-03-24T23:21:45.413Z,99521.00
2023-03-24T23:24:11.994Z,99533.72
2023-03-24T23:26:38.648Z,99480.81
2023-03-24T23:29:05.357Z,99500.47
2023-03-24T23:31:32.051Z,99500.41
2023-03-24T23:33:58.906Z,99529.38
2023-03-24T23:36:26.346Z,99527.16
2023-03-24T23:38:53.427Z,99487.84
2023-03-24T23:41:20.713Z,99507.53
2023-03-24T23:43:51.396Z,99546.66
2023-03-24T23:46:18.838Z,99533.06
2023-03-24T23:48:45.815Z,99488.66
2023-03-24T23:51:12.446Z,99544.34
2023-03-24T23:53:39.076Z,99543.50
2023-03-24T23:56:07.974Z,99546.94
2023-03-24T23:58:39.732Z,99550.09
